Time;durP1;ratioP1;P1;durP2;ratioP2;P2;SDS_P1;SDS_P2;PMS_P1;PMS_P2;Temp;Humidity;BMP_temperature;BMP_pressure;BME280_temperature;BME280_humidity;BME280_pressure;Samples;Min_cycle;Max_cycle;Signal;HPM_P1;HPM_P2
2022/10/17 00:00:20;;;;;;;9.43;4.55;;;16.90;99.90;;;;;;4085965;29;20626;-93
2022/10/17 00:02:21;;;;;;;9.27;4.72;;;16.90;99.90;;;;;;4070211;29;20209;-93
2022/10/17 00:04:22;;;;;;;7.53;4.55;;;16.90;99.90;;;;;;4101853;28;20183;-92
2022/10/17 00:06:22;;;;;;;10.82;4.90;;;16.80;99.90;;;;;;4086059;29;20222;-93
2022/10/17 00:08:23;;;;;;;12.15;4.72;;;16.80;99.90;;;;;;4070305;29;20172;-92
2022/10/17 00:10:24;;;;;;;12.02;4.43;;;16.80;99.90;;;;;;4070209;29;20200;-93
2022/10/17 00:12:25;;;;;;;11.02;4.15;;;16.80;99.90;;;;;;4070038;29;20191;-92
2022/10/17 00:14:26;;;;;;;9.90;4.82;;;16.80;99.90;;;;;;4070075;29;20184;-93
2022/10/17 00:16:29;;;;;;;12.05;4.60;;;16.80;99.90;;;;;;4085462;29;20175;-92
2022/10/17 00:18:30;;;;;;;12.93;4.93;;;16.80;99.90;;;;;;4085655;29;20514;-93
2022/10/17 00:20:34;;;;;;;9.82;4.95;;;16.80;99.90;;;;;;4085764;29;20314;-94
2022/10/17 00:22:34;;;;;;;9.15;4.70;;;16.80;99.90;;;;;;4069682;29;20184;-92
2022/10/17 00:24:35;;;;;;;14.20;4.78;;;16.80;99.90;;;;;;4085591;29;20764;-93
2022/10/17 00:26:36;;;;;;;8.68;4.88;;;16.70;99.90;;;;;;4069951;29;20227;-93
2022/10/17 00:28:37;;;;;;;9.57;4.43;;;16.80;99.90;;;;;;4069767;29;20168;-93
2022/10/17 00:30:38;;;;;;;8.45;4.63;;;16.70;99.90;;;;;;4085465;29;20242;-92
2022/10/17 00:32:39;;;;;;;12.50;4.50;;;16.70;99.90;;;;;;4069959;29;20240;-94
2022/10/17 00:34:40;;;;;;;9.65;4.70;;;16.70;99.90;;;;;;4069845;29;20177;-93
2022/10/17 00:36:41;;;;;;;8.00;4.72;;;16.70;99.90;;;;;;4068998;29;20239;-93
2022/10/17 00:38:44;;;;;;;7.30;4.30;;;16.70;99.90;;;;;;4085520;29;20227;-94
2022/10/17 00:40:45;;;;;;;9.55;4.53;;;16.70;99.90;;;;;;4069654;29;20217;-93
2022/10/17 00:42:51;;;;;;;6.60;4.18;;;16.70;99.90;;;;;;4085347;29;20180;-93
2022/10/17 00:45:21;;;;;;;10.35;4.65;;;16.80;99.90;;;;;;4085608;29;20168;-92
2022/10/17 00:47:22;;;;;;;9.38;4.68;;;16.90;99.90;;;;;;4085457;29;20179;-94
2022/10/17 00:49:27;;;;;;;7.57;4.55;;;16.80;99.90;;;;;;4069461;29;20187;-92
2022/10/17 00:51:40;;;;;;;8.57;4.40;;;16.90;99.90;;;;;;4100861;28;20198;-94
2022/10/17 00:53:41;;;;;;;8.00;4.65;;;16.90;99.90;;;;;;4100940;28;20194;-93
2022/10/17 00:55:47;;;;;;;8.50;4.57;;;16.90;99.90;;;;;;4069515;29;20255;-92
2022/10/17 00:57:49;;;;;;;8.85;4.63;;;17.00;99.90;;;;;;4100805;28;20190;-92
2022/10/17 00:59:54;;;;;;;11.95;4.35;;;16.90;99.90;;;;;;4100998;28;20270;-92
2022/10/17 01:02:15;;;;;;;12.13;4.93;;;17.00;99.90;;;;;;4100817;28;20187;-93
2022/10/17 01:04:17;;;;;;;12.93;5.20;;;17.00;99.90;;;;;;4100778;28;20278;-94
2022/10/17 01:06:19;;;;;;;15.98;4.90;;;17.00;99.90;;;;;;4084748;29;20219;-94
2022/10/17 01:08:20;;;;;;;9.88;4.65;;;17.10;99.90;;;;;;4084957;29;20172;-93
2022/10/17 01:10:25;;;;;;;11.07;5.28;;;17.00;99.90;;;;;;4069257;29;20211;-93
2022/10/17 01:12:47;;;;;;;9.55;4.63;;;17.10;99.90;;;;;;4100731;28;20202;-92
2022/10/17 01:15:04;;;;;;;13.52;4.57;;;17.10;99.90;;;;;;4069204;29;20614;-93
2022/10/17 01:17:42;;;;;;;12.30;4.70;;;17.10;99.90;;;;;;4100845;28;20205;-94
2022/10/17 01:19:58;;;;;;;10.95;5.03;;;17.10;99.90;;;;;;4069105;29;20207;-93
2022/10/17 01:22:08;;;;;;;10.82;4.82;;;17.20;99.90;;;;;;4069093;29;20287;-92
2022/10/17 01:24:32;;;;;;;10.68;4.85;;;17.30;99.90;;;;;;4100595;28;20587;-92
2022/10/17 01:26:51;;;;;;;10.57;5.10;;;17.40;99.90;;;;;;4084586;29;20221;-94
2022/10/17 01:29:08;;;;;;;11.20;5.75;;;17.40;99.90;;;;;;4069023;29;20172;-94
2022/10/17 01:31:13;;;;;;;8.90;5.53;;;17.40;99.90;;;;;;4069089;29;20216;-94
2022/10/17 01:33:32;;;;;;;9.32;5.35;;;17.40;99.90;;;;;;4100672;28;20183;-92
2022/10/17 01:35:44;;;;;;;11.25;5.07;;;17.50;99.90;;;;;;4069324;29;20176;-93
2022/10/17 01:37:50;;;;;;;9.10;4.82;;;17.40;99.90;;;;;;4100540;28;20178;-94
2022/10/17 01:40:49;;;;;;;9.52;5.00;;;17.50;99.90;;;;;;4069298;29;20207;-93
2022/10/17 01:43:13;;;;;;;7.53;5.15;;;17.50;99.90;;;;;;4099925;28;20175;-92
2022/10/17 01:45:24;;;;;;;8.18;5.00;;;17.50;99.90;;;;;;4084092;29;20302;-94
2022/10/17 01:47:29;;;;;;;8.45;5.10;;;17.60;99.90;;;;;;4084101;29;20247;-92
2022/10/17 01:49:31;;;;;;;14.90;5.57;;;17.50;99.90;;;;;;4068858;29;20176;-94
2022/10/17 01:51:43;;;;;;;7.35;4.70;;;17.60;99.90;;;;;;4068722;29;20235;-94
2022/10/17 01:53:53;;;;;;;8.02;4.70;;;17.70;99.90;;;;;;4068695;29;20271;-92
2022/10/17 01:55:56;;;;;;;8.98;4.50;;;17.60;99.90;;;;;;4068459;29;20176;-93
2022/10/17 01:58:18;;;;;;;8.13;5.15;;;17.60;99.90;;;;;;4068521;29;20184;-92
2022/10/17 02:00:23;;;;;;;8.55;4.78;;;17.40;99.90;;;;;;4068480;29;20534;-92
2022/10/17 02:02:26;;;;;;;6.55;4.57;;;17.40;99.90;;;;;;4068635;29;20173;-92
2022/10/17 02:04:27;;;;;;;5.93;4.72;;;17.60;99.90;;;;;;4084380;29;20187;-93
2022/10/17 02:06:28;;;;;;;8.40;4.65;;;17.60;99.90;;;;;;4084151;29;20245;-93
2022/10/17 02:08:44;;;;;;;11.27;5.03;;;17.60;99.90;;;;;;4084184;29;20175;-93
2022/10/17 02:11:02;;;;;;;6.57;4.00;;;17.70;99.90;;;;;;4084133;29;20572;-95
2022/10/17 02:13:13;;;;;;;15.35;4.40;;;17.60;99.90;;;;;;4084321;29;20201;-94
2022/10/17 02:15:40;;;;;;;8.07;4.30;;;17.50;99.90;;;;;;4068674;29;20187;-91
2022/10/17 02:18:02;;;;;;;7.32;4.63;;;17.60;99.90;;;;;;4099972;28;20183;-92
2022/10/17 02:20:16;;;;;;;14.18;4.78;;;17.70;99.90;;;;;;4068496;29;20187;-92
2022/10/17 02:22:19;;;;;;;14.13;4.40;;;17.90;99.90;;;;;;4068524;29;20633;-91
2022/10/17 02:24:36;;;;;;;8.20;4.35;;;17.90;99.90;;;;;;4084396;29;20227;-93
2022/10/17 02:26:43;;;;;;;9.55;4.03;;;18.00;99.90;;;;;;4068277;29;20259;-92
2022/10/17 02:29:02;;;;;;;11.80;4.00;;;18.20;99.90;;;;;;4099759;28;20171;-93
2022/10/17 02:31:05;;;;;;;6.60;4.18;;;18.10;99.90;;;;;;4100172;28;20199;-91
2022/10/17 02:33:19;;;;;;;10.75;4.38;;;18.20;99.90;;;;;;4100119;28;20179;-94
2022/10/17 02:35:22;;;;;;;4.53;3.70;;;18.30;99.90;;;;;;4099839;28;20266;-92
2022/10/17 02:37:27;;;;;;;7.35;3.55;;;18.30;99.90;;;;;;4099908;28;20206;-91
2022/10/17 02:39:30;;;;;;;7.13;4.13;;;18.40;99.90;;;;;;4099911;28;20238;-93
2022/10/17 02:41:32;;;;;;;8.00;3.80;;;18.40;99.90;;;;;;4068375;29;20207;-92
2022/10/17 02:43:35;;;;;;;8.45;3.92;;;18.30;99.90;;;;;;4099822;28;20171;-93
2022/10/17 02:45:37;;;;;;;7.50;4.03;;;18.30;99.90;;;;;;4099634;28;20203;-93
2022/10/17 02:48:04;;;;;;;12.20;3.97;;;18.40;99.90;;;;;;4068545;29;20602;-91
2022/10/17 02:50:06;;;;;;;10.20;3.55;;;18.30;99.90;;;;;;4099654;28;20175;-92
2022/10/17 02:52:19;;;;;;;7.32;3.38;;;18.40;99.90;;;;;;4068080;29;20642;-93
2022/10/17 02:54:35;;;;;;;9.27;3.58;;;18.40;99.90;;;;;;4099815;28;20225;-92
2022/10/17 02:56:43;;;;;;;7.80;3.67;;;18.40;99.90;;;;;;4068065;29;20184;-91
2022/10/17 02:58:50;;;;;;;9.50;3.75;;;18.50;99.90;;;;;;4083936;29;20172;-92
2022/10/17 03:00:52;;;;;;;6.65;3.38;;;18.70;99.90;;;;;;4086919;29;20201;-92
2022/10/17 03:02:53;;;;;;;9.30;3.53;;;18.80;99.90;;;;;;4087137;29;20180;-92
2022/10/17 03:04:55;;;;;;;10.73;3.90;;;18.80;99.90;;;;;;4086892;29;20175;-93
2022/10/17 03:06:55;;;;;;;7.57;3.33;;;18.80;99.90;;;;;;4071112;29;20240;-92
2022/10/17 03:08:57;;;;;;;8.45;3.47;;;18.80;99.90;;;;;;4086808;29;20258;-92
2022/10/17 03:10:57;;;;;;;6.25;3.65;;;18.70;99.90;;;;;;4102485;28;20201;-93
2022/10/17 03:13:00;;;;;;;5.75;3.55;;;18.80;99.90;;;;;;4071144;29;20268;-92
2022/10/17 03:15:01;;;;;;;9.55;3.40;;;19.00;99.90;;;;;;4071039;29;20596;-92
2022/10/17 03:17:03;;;;;;;6.80;3.80;;;19.00;99.90;;;;;;4071287;29;20169;-91
2022/10/17 03:19:04;;;;;;;9.68;3.53;;;19.10;99.90;;;;;;4071138;29;20272;-93
2022/10/17 03:21:06;;;;;;;10.65;3.15;;;19.20;99.90;;;;;;4070780;29;20243;-92
2022/10/17 03:23:07;;;;;;;7.47;3.17;;;19.10;99.90;;;;;;4086541;29;20195;-92
2022/10/17 03:25:08;;;;;;;4.68;3.40;;;19.10;99.90;;;;;;4070679;29;20263;-92
2022/10/17 03:27:10;;;;;;;5.07;3.42;;;19.20;99.90;;;;;;4086263;29;20548;-91
2022/10/17 03:29:13;;;;;;;8.60;3.75;;;19.20;99.90;;;;;;4070727;29;20699;-92
2022/10/17 03:31:15;;;;;;;6.15;3.78;;;19.00;99.90;;;;;;4102328;28;20550;-91
2022/10/17 03:33:17;;;;;;;9.00;3.88;;;18.80;99.90;;;;;;4102482;28;20208;-92
2022/10/17 03:35:18;;;;;;;13.23;3.47;;;18.70;99.90;;;;;;4070567;29;20227;-93
2022/10/17 03:37:22;;;;;;;7.10;3.10;;;18.70;99.90;;;;;;4070966;29;20268;-91
2022/10/17 03:39:23;;;;;;;5.72;3.28;;;18.70;99.90;;;;;;4102346;28;20636;-93
2022/10/17 03:41:24;;;;;;;6.47;3.22;;;18.80;99.90;;;;;;4086362;29;20223;-92
2022/10/17 03:43:25;;;;;;;12.82;3.30;;;18.80;99.90;;;;;;4070717;29;20209;-93
2022/10/17 03:45:26;;;;;;;7.68;3.40;;;18.70;99.90;;;;;;4070461;29;20550;-92
2022/10/17 03:47:27;;;;;;;8.85;3.28;;;18.70;99.90;;;;;;4070564;29;20180;-94
2022/10/17 03:49:28;;;;;;;7.72;3.33;;;18.70;99.90;;;;;;4070431;29;20194;-92
2022/10/17 03:51:29;;;;;;;5.80;3.08;;;18.70;99.90;;;;;;4085951;29;20184;-93
2022/10/17 03:53:36;;;;;;;5.70;3.15;;;18.60;99.90;;;;;;4070991;29;20258;-93
2022/10/17 03:55:38;;;;;;;6.40;3.35;;;18.70;99.90;;;;;;4086061;28;20191;-91
2022/10/17 03:57:38;;;;;;;7.75;3.17;;;18.70;99.90;;;;;;4070221;29;20638;-92
2022/10/17 03:59:40;;;;;;;7.38;3.30;;;18.70;99.90;;;;;;4085858;29;20171;-94
2022/10/17 04:01:46;;;;;;;8.15;3.25;;;18.70;99.90;;;;;;4070738;29;20188;-94
2022/10/17 04:03:52;;;;;;;7.38;3.40;;;18.60;99.90;;;;;;4070188;29;20168;-94
2022/10/17 04:05:53;;;;;;;6.95;3.50;;;18.60;99.90;;;;;;4070143;29;20689;-94
2022/10/17 04:07:54;;;;;;;8.98;3.45;;;18.50;99.90;;;;;;4085851;29;20168;-93
2022/10/17 04:10:02;;;;;;;8.02;3.20;;;18.50;99.90;;;;;;4070645;29;20258;-92
2022/10/17 04:12:03;;;;;;;8.98;3.40;;;18.50;99.90;;;;;;4069638;29;20176;-91
2022/10/17 04:14:06;;;;;;;7.55;3.42;;;18.50;99.90;;;;;;4086084;29;20179;-94
2022/10/17 04:16:10;;;;;;;10.32;3.63;;;18.50;99.90;;;;;;4070233;29;20180;-94
2022/10/17 04:18:16;;;;;;;8.05;3.55;;;18.60;99.90;;;;;;4070631;29;20183;-93
2022/10/17 04:20:16;;;;;;;6.43;3.40;;;18.70;99.90;;;;;;4085757;29;20172;-92
2022/10/17 04:22:17;;;;;;;9.55;3.35;;;18.60;99.90;;;;;;4086096;29;20179;-91
2022/10/17 04:24:18;;;;;;;6.72;3.17;;;18.50;99.90;;;;;;4069891;29;20252;-92
2022/10/17 04:26:22;;;;;;;10.15;3.60;;;18.50;99.90;;;;;;4085880;29;20223;-93
2022/10/17 04:28:24;;;;;;;6.28;3.22;;;18.50;99.90;;;;;;4101469;28;20178;-93
2022/10/17 04:30:24;;;;;;;5.78;3.10;;;18.40;99.90;;;;;;4101394;28;20194;-92
2022/10/17 04:32:25;;;;;;;6.43;3.58;;;18.40;99.90;;;;;;4085586;29;20708;-92
2022/10/17 04:34:33;;;;;;;9.45;3.00;;;18.40;99.90;;;;;;4070615;29;20227;-93
2022/10/17 04:36:33;;;;;;;8.15;3.50;;;18.50;99.90;;;;;;4085532;29;20589;-92
2022/10/17 04:38:35;;;;;;;8.40;3.20;;;18.40;99.90;;;;;;4069448;29;20631;-92
2022/10/17 04:40:36;;;;;;;6.80;3.05;;;18.40;99.90;;;;;;4101349;28;20191;-91
2022/10/17 04:42:37;;;;;;;10.15;3.33;;;18.30;99.90;;;;;;4085413;29;20172;-92
2022/10/17 04:44:38;;;;;;;7.72;3.58;;;18.30;99.90;;;;;;4069680;29;20236;-91
2022/10/17 04:46:38;;;;;;;12.40;3.20;;;18.40;99.90;;;;;;4085389;29;20262;-92
2022/10/17 04:48:40;;;;;;;7.32;3.00;;;18.40;99.90;;;;;;4069524;29;20300;-92
2022/10/17 04:50:52;;;;;;;9.25;3.22;;;18.30;99.90;;;;;;4069604;29;20200;-92
2022/10/17 04:53:13;;;;;;;6.70;2.90;;;18.20;99.90;;;;;;4085365;29;20180;-94
2022/10/17 04:55:14;;;;;;;6.10;3.00;;;18.20;99.90;;;;;;4101170;28;20669;-93
2022/10/17 04:57:17;;;;;;;6.10;3.17;;;18.20;99.90;;;;;;4069554;29;20226;-93
2022/10/17 04:59:27;;;;;;;5.97;3.13;;;18.30;99.90;;;;;;4099989;28;20174;-93
2022/10/17 05:01:39;;;;;;;12.68;3.15;;;18.30;99.90;;;;;;4070878;29;20655;-92
2022/10/17 05:03:40;;;;;;;6.50;3.42;;;18.40;99.90;;;;;;4085408;28;20179;-93
2022/10/17 05:05:41;;;;;;;7.03;3.00;;;18.40;99.90;;;;;;4069439;29;20236;-93
2022/10/17 05:07:43;;;;;;;7.15;3.17;;;18.40;99.90;;;;;;4069505;29;20176;-93
2022/10/17 05:09:47;;;;;;;8.27;3.25;;;18.30;99.90;;;;;;4085038;29;20648;-92
2022/10/17 05:11:49;;;;;;;7.65;3.30;;;18.40;99.90;;;;;;4069331;29;20616;-93
2022/10/17 05:14:00;;;;;;;8.23;3.30;;;18.50;99.90;;;;;;4084903;28;20180;-92
2022/10/17 05:16:01;;;;;;;7.30;3.28;;;18.70;99.90;;;;;;4069089;29;20262;-92
2022/10/17 05:18:02;;;;;;;8.07;3.17;;;18.60;99.90;;;;;;4084685;29;20214;-92
2022/10/17 05:20:04;;;;;;;6.30;3.10;;;18.60;99.90;;;;;;4068833;29;20677;-92
2022/10/17 05:22:07;;;;;;;8.07;3.03;;;18.70;99.90;;;;;;4068683;29;20542;-92
2022/10/17 05:24:10;;;;;;;7.35;3.03;;;18.70;99.90;;;;;;4084679;29;20171;-92
2022/10/17 05:26:13;;;;;;;11.15;3.67;;;18.80;99.90;;;;;;4100370;28;20654;-92
2022/10/17 05:28:14;;;;;;;6.10;2.92;;;18.70;99.90;;;;;;4100616;28;20179;-92
2022/10/17 05:30:16;;;;;;;6.38;2.83;;;18.70;99.90;;;;;;4084645;29;20175;-92
2022/10/17 05:32:17;;;;;;;6.28;2.85;;;18.60;99.90;;;;;;4084653;29;20183;-92
2022/10/17 05:34:18;;;;;;;9.20;3.17;;;18.50;99.90;;;;;;4084663;29;20167;-91
2022/10/17 05:36:19;;;;;;;12.07;3.20;;;18.60;99.90;;;;;;4084754;29;20704;-92
2022/10/17 05:38:20;;;;;;;8.95;3.13;;;18.70;99.90;;;;;;4100394;28;20269;-92
2022/10/17 05:40:23;;;;;;;9.25;3.20;;;18.70;99.90;;;;;;4084452;28;20236;-93
2022/10/17 05:42:26;;;;;;;9.52;3.15;;;18.80;99.90;;;;;;4069131;29;20176;-92
2022/10/17 05:44:27;;;;;;;5.15;2.92;;;18.70;99.90;;;;;;4100366;28;20251;-93
2022/10/17 05:46:31;;;;;;;7.00;3.10;;;18.70;99.90;;;;;;4084344;29;20328;-93
2022/10/17 05:48:32;;;;;;;7.70;3.22;;;18.70;99.90;;;;;;4084332;29;20191;-93
2022/10/17 05:50:34;;;;;;;10.80;3.83;;;18.70;99.90;;;;;;4068641;29;20196;-91
2022/10/17 05:52:53;;;;;;;9.20;3.88;;;18.70;99.90;;;;;;4098672;29;20171;-92
2022/10/17 05:54:53;;;;;;;11.77;3.72;;;18.90;99.90;;;;;;4100439;28;20179;-92
2022/10/17 05:56:55;;;;;;;9.20;3.03;;;19.00;99.90;;;;;;4084461;29;20187;-93
2022/10/17 05:59:00;;;;;;;11.60;3.33;;;19.00;99.90;;;;;;4099895;28;20175;-92
2022/10/17 06:01:19;;;;;;;8.82;3.40;;;18.90;99.90;;;;;;4084453;29;20254;-91
2022/10/17 06:03:19;;;;;;;4.55;3.03;;;18.90;99.90;;;;;;4100117;28;20211;-92
2022/10/17 06:05:21;;;;;;;8.70;3.40;;;18.90;99.90;;;;;;4084379;29;20723;-92
2022/10/17 06:07:21;;;;;;;7.47;2.92;;;19.00;99.90;;;;;;4084421;29;20188;-92
2022/10/17 06:09:23;;;;;;;6.70;3.50;;;19.00;99.90;;;;;;4068686;29;20649;-92
2022/10/17 06:11:26;;;;;;;10.18;3.38;;;18.90;99.90;;;;;;4068906;29;20206;-92
2022/10/17 06:13:28;;;;;;;8.02;3.05;;;18.90;99.90;;;;;;4100156;28;20587;-93
2022/10/17 06:15:29;;;;;;;8.70;3.38;;;18.80;99.90;;;;;;4084296;29;20240;-93
2022/10/17 06:17:35;;;;;;;9.95;3.10;;;19.00;99.90;;;;;;4069435;29;20202;-91
2022/10/17 06:19:36;;;;;;;5.65;3.05;;;18.80;99.90;;;;;;4084240;29;20186;-92
2022/10/17 06:21:37;;;;;;;5.22;3.25;;;18.70;99.90;;;;;;4083991;29;20179;-94
2022/10/17 06:23:49;;;;;;;5.82;3.13;;;18.60;99.90;;;;;;4085156;29;20186;-92
2022/10/17 06:25:59;;;;;;;13.98;3.22;;;18.60;99.90;;;;;;4069333;29;20717;-94
2022/10/17 06:28:00;;;;;;;5.50;2.50;;;18.60;99.90;;;;;;4099942;28;20177;-91
2022/10/17 06:30:01;;;;;;;6.88;3.20;;;18.60;99.90;;;;;;4084199;29;20171;-92
2022/10/17 06:32:03;;;;;;;11.35;3.10;;;18.50;99.90;;;;;;4068243;29;20179;-93
2022/10/17 06:34:05;;;;;;;9.32;3.55;;;18.40;99.90;;;;;;4084776;28;20190;-93
2022/10/17 06:36:09;;;;;;;12.43;3.53;;;18.40;99.90;;;;;;4071777;29;20184;-93
2022/10/17 06:38:10;;;;;;;8.35;3.63;;;18.40;99.90;;;;;;4071386;29;20221;-93
2022/10/17 06:40:13;;;;;;;20.42;3.80;;;18.30;99.90;;;;;;4087130;29;20251;-92
2022/10/17 06:42:15;;;;;;;16.27;3.83;;;18.40;99.90;;;;;;4071557;29;20180;-92
2022/10/17 06:44:24;;;;;;;12.73;3.67;;;18.40;99.90;;;;;;4072351;29;20176;-94
2022/10/17 06:46:51;;;;;;;6.25;3.15;;;18.40;99.90;;;;;;4087631;29;20218;-94
2022/10/17 06:48:52;;;;;;;9.00;4.50;;;18.20;99.90;;;;;;4103226;28;20608;-95
2022/10/17 06:51:19;;;;;;;12.35;4.15;;;18.20;99.90;;;;;;4088167;28;20200;-91
2022/10/17 06:53:29;;;;;;;8.63;3.60;;;18.20;99.90;;;;;;4102331;28;20170;-94
2022/10/17 06:55:57;;;;;;;11.27;3.78;;;18.20;99.90;;;;;;4100916;28;20791;-92
2022/10/17 06:58:21;;;;;;;6.53;3.63;;;18.10;99.90;;;;;;4099805;28;20183;-91
2022/10/17 07:00:44;;;;;;;8.25;3.92;;;18.20;99.90;;;;;;4099909;28;20203;-93
2022/10/17 07:02:46;;;;;;;8.45;3.58;;;18.30;99.90;;;;;;4102653;28;20171;-94
2022/10/17 07:04:47;;;;;;;9.95;3.60;;;18.30;99.90;;;;;;4071265;29;20602;-91
2022/10/17 07:06:47;;;;;;;8.23;3.35;;;18.30;99.90;;;;;;4071072;29;20247;-92
2022/10/17 07:08:55;;;;;;;7.93;3.78;;;18.10;99.90;;;;;;4087924;29;20175;-94
2022/10/17 07:10:56;;;;;;;11.18;3.95;;;18.20;99.90;;;;;;4102470;28;20263;-93
2022/10/17 07:12:57;;;;;;;18.30;3.88;;;18.30;99.90;;;;;;4070855;29;20176;-92
2022/10/17 07:14:58;;;;;;;8.07;3.40;;;18.10;99.90;;;;;;4071017;29;20220;-95
2022/10/17 07:16:58;;;;;;;4.05;2.90;;;18.00;99.90;;;;;;4086928;29;20223;-95
2022/10/17 07:19:02;;;;;;;7.22;3.50;;;18.00;99.90;;;;;;4087077;29;20207;-91
2022/10/17 07:21:08;;;;;;;7.50;2.72;;;18.00;99.90;;;;;;4102313;28;20195;-93
2022/10/17 07:23:09;;;;;;;6.47;2.83;;;17.80;99.90;;;;;;4102504;28;20588;-95
2022/10/17 07:25:10;;;;;;;6.90;2.88;;;17.90;99.90;;;;;;4071231;29;20180;-94
2022/10/17 07:27:18;;;;;;;4.72;3.00;;;17.90;99.90;;;;;;4072419;29;20182;-95
2022/10/17 07:29:19;;;;;;;8.30;3.10;;;17.90;99.90;;;;;;4102898;28;20171;-92
2022/10/17 07:31:40;;;;;;;9.68;2.80;;;18.00;99.90;;;;;;4086325;29;20199;-94
2022/10/17 07:33:42;;;;;;;9.50;2.58;;;18.20;99.90;;;;;;4086288;29;20179;-93
2022/10/17 07:35:43;;;;;;;8.38;3.10;;;18.10;99.90;;;;;;4070748;29;20161;-95
2022/10/17 07:37:44;;;;;;;6.60;3.25;;;18.10;99.90;;;;;;4086169;29;20540;-93
2022/10/17 07:39:47;;;;;;;5.60;2.78;;;17.90;99.90;;;;;;4102210;28;20179;-93
2022/10/17 07:41:49;;;;;;;8.07;2.90;;;17.80;99.90;;;;;;4070658;29;20255;-94
2022/10/17 07:43:50;;;;;;;6.70;3.00;;;17.90;99.90;;;;;;4070550;29;20173;-92
2022/10/17 07:45:55;;;;;;;6.88;2.50;;;17.90;99.90;;;;;;4070675;29;20235;-95
2022/10/17 07:47:56;;;;;;;4.20;2.75;;;18.00;99.90;;;;;;4101938;28;20171;-93
2022/10/17 07:49:57;;;;;;;5.88;2.50;;;18.00;99.90;;;;;;4086178;29;20179;-95
2022/10/17 07:51:58;;;;;;;6.93;2.45;;;18.00;99.90;;;;;;4070088;29;20260;-92
2022/10/17 07:53:59;;;;;;;4.30;2.42;;;17.90;99.90;;;;;;4085953;29;20208;-93
2022/10/17 07:56:06;;;;;;;5.28;2.20;;;18.10;99.90;;;;;;4070399;29;20181;-93
2022/10/17 07:58:08;;;;;;;7.10;2.75;;;18.00;99.90;;;;;;4085864;29;20183;-92
2022/10/17 08:00:09;;;;;;;4.43;1.70;;;17.90;99.90;;;;;;4070209;29;20177;-92
2022/10/17 08:02:23;;;;;;;8.48;1.95;;;18.00;99.90;;;;;;4086682;29;20179;-94
2022/10/17 08:04:25;;;;;;;8.25;1.90;;;18.10;99.90;;;;;;4101924;28;20214;-94
2022/10/17 08:06:26;;;;;;;4.07;1.77;;;18.10;99.90;;;;;;4101724;28;20210;-92
2022/10/17 08:08:27;;;;;;;4.60;2.10;;;18.10;99.90;;;;;;4086164;28;20243;-96
2022/10/17 08:10:28;;;;;;;7.10;2.00;;;18.10;99.90;;;;;;4086032;29;20200;-93
2022/10/17 08:12:31;;;;;;;6.57;2.10;;;18.10;99.90;;;;;;4085996;29;20243;-94
2022/10/17 08:14:32;;;;;;;3.90;2.47;;;17.90;99.90;;;;;;4086152;29;20183;-93
2022/10/17 08:16:32;;;;;;;7.10;2.40;;;17.80;99.90;;;;;;4070296;29;20188;-93
2022/10/17 08:18:35;;;;;;;10.02;2.92;;;17.80;99.90;;;;;;4086043;29;20175;-96
2022/10/17 08:20:36;;;;;;;8.27;3.10;;;18.00;99.90;;;;;;4085923;29;20188;-93
2022/10/17 08:22:36;;;;;;;5.78;3.00;;;18.00;99.90;;;;;;4085833;29;20210;-92
2022/10/17 08:24:37;;;;;;;7.45;3.08;;;18.30;99.90;;;;;;4085741;29;20183;-94
2022/10/17 08:26:38;;;;;;;10.23;3.17;;;18.30;99.90;;;;;;4069673;29;20215;-95
2022/10/17 08:28:39;;;;;;;7.07;3.40;;;18.50;99.90;;;;;;4069742;29;20180;-93
2022/10/17 08:30:40;;;;;;;6.22;3.85;;;18.60;99.90;;;;;;4101384;28;20198;-92
2022/10/17 08:32:41;;;;;;;7.90;4.00;;;18.60;99.90;;;;;;4085670;29;20187;-92
2022/10/17 08:34:41;;;;;;;6.93;4.18;;;18.60;99.90;;;;;;4069862;29;20236;-93
2022/10/17 08:36:42;;;;;;;9.02;4.35;;;18.60;99.90;;;;;;4085597;29;20178;-93
2022/10/17 08:38:44;;;;;;;7.78;3.90;;;18.70;99.90;;;;;;4069762;29;20258;-94
2022/10/17 08:40:48;;;;;;;7.63;3.92;;;18.70;99.90;;;;;;4069896;29;20192;-93
2022/10/17 08:43:13;;;;;;;9.93;3.83;;;18.80;99.90;;;;;;4069892;29;20180;-94
2022/10/17 08:45:13;;;;;;;8.07;3.70;;;18.90;99.90;;;;;;4069787;29;20603;-93
2022/10/17 08:47:23;;;;;;;8.15;3.90;;;18.80;99.90;;;;;;4085063;29;20234;-93
2022/10/17 08:49:45;;;;;;;6.63;3.92;;;18.80;99.90;;;;;;4069691;29;20183;-94
2022/10/17 08:51:57;;;;;;;9.98;4.60;;;18.90;99.90;;;;;;4069486;29;20207;-94
2022/10/17 08:54:11;;;;;;;7.68;4.63;;;18.80;99.90;;;;;;4069484;29;20179;-93
2022/10/17 08:56:24;;;;;;;8.52;4.05;;;18.70;99.90;;;;;;4069090;29;20185;-95
2022/10/17 08:58:32;;;;;;;9.73;4.40;;;18.70;99.90;;;;;;4069055;29;20631;-93
2022/10/17 09:00:45;;;;;;;6.40;3.80;;;18.70;99.90;;;;;;4069373;29;20615;-95
2022/10/17 09:03:04;;;;;;;7.97;4.82;;;18.70;99.90;;;;;;4069421;29;20175;-93
2022/10/17 09:05:23;;;;;;;9.40;4.28;;;18.70;99.90;;;;;;4069476;29;20188;-95
2022/10/17 09:07:34;;;;;;;9.57;4.20;;;18.80;99.90;;;;;;4069587;29;20537;-94
2022/10/17 09:09:55;;;;;;;14.68;6.95;;;18.90;99.90;;;;;;4069758;29;20219;-95
2022/10/17 09:12:21;;;;;;;9.77;4.57;;;18.90;99.90;;;;;;4069409;29;20385;-93
2022/10/17 09:14:27;;;;;;;6.53;3.95;;;18.90;99.90;;;;;;4069393;29;20696;-95
2022/10/17 09:16:59;;;;;;;6.97;4.88;;;18.90;99.90;;;;;;4069579;29;20180;-93
2022/10/17 09:19:11;;;;;;;13.20;6.72;;;18.90;99.90;;;;;;4069194;29;20188;-93
2022/10/17 09:21:32;;;;;;;12.35;4.90;;;18.90;99.90;;;;;;4069136;29;20256;-92
2022/10/17 09:23:53;;;;;;;18.42;10.82;;;18.80;99.90;;;;;;4069137;29;20188;-93
2022/10/17 09:25:57;;;;;;;69.15;50.75;;;18.80;99.90;;;;;;4084568;29;20227;-93
2022/10/17 09:28:16;;;;;;;11.05;6.45;;;18.90;99.90;;;;;;4084560;29;20179;-94
2022/10/17 09:30:43;;;;;;;19.75;12.65;;;19.00;99.90;;;;;;4068902;29;20183;-96
2022/10/17 09:32:46;;;;;;;7.93;4.25;;;19.00;99.90;;;;;;4069012;29;20316;-93
2022/10/17 09:34:47;;;;;;;9.30;4.47;;;18.80;99.90;;;;;;4084606;29;20181;-93
2022/10/17 09:36:47;;;;;;;10.20;4.32;;;18.80;99.90;;;;;;4068882;29;20244;-93
2022/10/17 09:39:18;;;;;;;9.45;5.00;;;18.90;99.90;;;;;;4068874;29;20180;-94
2022/10/17 09:41:25;;;;;;;11.93;4.63;;;18.90;99.90;;;;;;4084231;29;20583;-96
2022/10/17 09:43:26;;;;;;;8.30;4.70;;;19.00;99.90;;;;;;4100370;28;20258;-94
2022/10/17 09:45:32;;;;;;;7.43;4.53;;;19.20;99.90;;;;;;4100408;28;20214;-93
2022/10/17 09:47:56;;;;;;;7.72;4.43;;;19.30;99.90;;;;;;4100557;28;20194;-93
2022/10/17 09:49:56;;;;;;;9.63;4.13;;;19.30;99.90;;;;;;4100664;28;20186;-92
2022/10/17 09:51:59;;;;;;;10.88;4.40;;;19.30;99.90;;;;;;4084543;29;20191;-94
2022/10/17 09:54:03;;;;;;;10.95;4.32;;;19.30;99.90;;;;;;4068999;29;20263;-94
2022/10/17 09:56:11;;;;;;;11.70;5.03;;;19.30;99.90;;;;;;4100572;28;20315;-91
2022/10/17 09:58:12;;;;;;;6.10;3.95;;;19.20;99.90;;;;;;4100348;28;20240;-94
2022/10/17 10:00:21;;;;;;;10.45;4.32;;;19.10;99.90;;;;;;4084459;29;20183;-95
2022/10/17 10:02:24;;;;;;;11.20;4.45;;;19.00;99.90;;;;;;4100101;28;20284;-92
2022/10/17 10:04:25;;;;;;;6.78;4.50;;;19.00;99.90;;;;;;4068612;29;20206;-95
2022/10/17 10:06:26;;;;;;;12.63;5.50;;;18.90;99.90;;;;;;4068243;29;20299;-94
2022/10/17 10:08:36;;;;;;;9.65;4.90;;;19.00;99.90;;;;;;4084232;29;20179;-92
2022/10/17 10:10:41;;;;;;;9.18;3.92;;;19.00;99.90;;;;;;4099980;28;20194;-95
2022/10/17 10:13:05;;;;;;;7.13;4.40;;;19.10;99.90;;;;;;4099846;28;20187;-95
2022/10/17 10:15:36;;;;;;;11.05;5.35;;;19.00;99.90;;;;;;4100049;28;20175;-92
2022/10/17 10:17:43;;;;;;;16.95;4.47;;;19.00;99.90;;;;;;4068401;29;20271;-91
2022/10/17 10:19:49;;;;;;;14.63;4.53;;;19.10;99.90;;;;;;4068463;29;20660;-91
2022/10/17 10:22:12;;;;;;;15.57;4.72;;;19.10;99.90;;;;;;4099970;28;20199;-95
2022/10/17 10:24:13;;;;;;;14.10;5.10;;;19.00;99.90;;;;;;4100194;28;20255;-95
2022/10/17 10:26:21;;;;;;;8.80;4.63;;;19.00;99.90;;;;;;4068452;29;20282;-94
2022/10/17 10:28:28;;;;;;;9.30;5.05;;;19.00;99.90;;;;;;4084052;29;20186;-93
2022/10/17 10:30:30;;;;;;;8.70;4.40;;;19.10;99.90;;;;;;4099964;28;20189;-93
2022/10/17 10:32:33;;;;;;;10.75;4.93;;;19.10;99.90;;;;;;4099952;28;20179;-92
2022/10/17 10:34:35;;;;;;;10.00;4.78;;;19.00;99.90;;;;;;4100083;28;20179;-94
2022/10/17 10:36:55;;;;;;;8.73;4.72;;;19.10;99.90;;;;;;4068371;29;20180;-95
2022/10/17 10:38:57;;;;;;;8.20;4.70;;;19.10;99.90;;;;;;4100042;28;20238;-92
2022/10/17 10:41:08;;;;;;;11.10;5.25;;;19.30;99.90;;;;;;4068389;29;20287;-94
2022/10/17 10:43:31;;;;;;;10.73;4.45;;;19.50;99.90;;;;;;4099942;28;20197;-92
2022/10/17 10:45:35;;;;;;;8.23;4.22;;;19.60;99.90;;;;;;4099989;28;20235;-96
2022/10/17 10:47:36;;;;;;;15.63;4.57;;;19.50;99.90;;;;;;4084222;29;20644;-94
2022/10/17 10:49:41;;;;;;;10.45;4.50;;;19.50;99.90;;;;;;4068482;29;20176;-93
2022/10/17 10:51:46;;;;;;;11.77;4.65;;;19.50;99.90;;;;;;4068313;29;20204;-94
2022/10/17 10:54:04;;;;;;;9.73;4.40;;;19.40;99.90;;;;;;4068455;29;20248;-93